Time;durP1;ratioP1;P1;durP2;ratioP2;P2;SDS_P1;SDS_P2;PMS_P1;PMS_P2;Temp;Humidity;BMP_temperature;BMP_pressure;BME280_temperature;BME280_humidity;BME280_pressure;Samples;Min_cycle;Max_cycle;Signal;HPM_P1;HPM_P2
2021/08/25 00:00:50;;;;;;;5.18;2.80;;;14.40;92.00;;;;;;5082896;28;20047;-76
2021/08/25 00:03:16;;;;;;;4.45;2.53;;;14.40;92.30;;;;;;5030904;28;20066;-76
2021/08/25 00:05:43;;;;;;;4.38;2.28;;;14.40;92.40;;;;;;5080791;28;20040;-76
2021/08/25 00:08:09;;;;;;;4.25;1.88;;;14.40;92.60;;;;;;5081196;28;20032;-76
2021/08/25 00:10:36;;;;;;;4.50;2.42;;;14.30;92.80;;;;;;5082775;28;20032;-76
2021/08/25 00:13:06;;;;;;;4.60;2.15;;;14.30;93.00;;;;;;5048566;28;20040;-76
2021/08/25 00:15:41;;;;;;;3.90;2.25;;;14.20;93.10;;;;;;5083591;28;20043;-77
2021/08/25 00:18:09;;;;;;;3.58;2.10;;;14.20;93.30;;;;;;5065178;28;20031;-78
2021/08/25 00:20:36;;;;;;;4.80;2.60;;;14.20;93.40;;;;;;5048294;28;20051;-78
2021/08/25 00:23:03;;;;;;;4.57;2.75;;;14.20;93.60;;;;;;5065291;28;20048;-76
2021/08/25 00:25:30;;;;;;;5.65;3.17;;;14.10;93.70;;;;;;5082648;28;20055;-76
2021/08/25 00:27:57;;;;;;;5.18;2.75;;;14.10;93.90;;;;;;5080764;28;20024;-76
2021/08/25 00:30:24;;;;;;;6.18;2.90;;;14.10;94.00;;;;;;5048731;28;20380;-76
2021/08/25 00:32:50;;;;;;;6.53;3.15;;;14.10;94.30;;;;;;5063979;28;20036;-76
2021/08/25 00:35:17;;;;;;;4.95;2.60;;;14.00;94.50;;;;;;5083167;28;20506;-76
2021/08/25 00:37:44;;;;;;;4.30;2.55;;;14.00;94.70;;;;;;5080258;28;20035;-76
2021/08/25 00:40:11;;;;;;;5.28;2.65;;;14.00;94.80;;;;;;5083017;28;20040;-76
2021/08/25 00:42:37;;;;;;;6.43;2.67;;;14.00;95.00;;;;;;5065092;28;20035;-76
2021/08/25 00:45:06;;;;;;;4.30;2.30;;;14.00;95.10;;;;;;5065060;28;20046;-76
2021/08/25 00:47:36;;;;;;;4.75;2.53;;;14.00;95.30;;;;;;5063180;28;20047;-76
2021/08/25 00:50:03;;;;;;;3.80;2.25;;;13.90;95.40;;;;;;5046119;28;20044;-76
2021/08/25 00:52:30;;;;;;;5.18;2.50;;;13.90;95.60;;;;;;5062592;28;20059;-76
2021/08/25 00:55:01;;;;;;;6.30;2.90;;;13.90;95.80;;;;;;5083213;28;20028;-76
2021/08/25 00:57:36;;;;;;;5.40;2.95;;;13.90;96.00;;;;;;5060747;28;20486;-76
2021/08/25 01:00:09;;;;;;;4.03;2.38;;;13.80;96.10;;;;;;5048193;28;20062;-76
2021/08/25 01:02:50;;;;;;;4.80;2.53;;;13.80;96.30;;;;;;5059485;28;20051;-76
2021/08/25 01:05:17;;;;;;;4.18;2.65;;;13.80;96.50;;;;;;5082886;28;20124;-76
2021/08/25 01:07:46;;;;;;;4.70;2.22;;;13.80;96.60;;;;;;5079160;28;20044;-76
2021/08/25 01:10:29;;;;;;;4.38;2.67;;;13.80;96.80;;;;;;5082762;28;20043;-76
2021/08/25 01:12:59;;;;;;;6.00;2.33;;;13.80;97.10;;;;;;5080284;28;20038;-76
2021/08/25 01:15:27;;;;;;;5.85;3.15;;;13.80;97.10;;;;;;5082220;28;20028;-76
2021/08/25 01:17:55;;;;;;;4.65;2.60;;;13.80;97.30;;;;;;5065098;28;20032;-76
2021/08/25 01:20:24;;;;;;;6.30;3.05;;;13.80;97.50;;;;;;5051270;28;20491;-76
2021/08/25 01:22:50;;;;;;;5.20;2.70;;;13.70;97.60;;;;;;5085907;28;20482;-75
2021/08/25 01:25:18;;;;;;;5.45;2.63;;;13.70;97.70;;;;;;5051910;28;20043;-75
2021/08/25 01:27:55;;;;;;;4.63;3.05;;;13.70;97.80;;;;;;5066030;28;20040;-75
2021/08/25 01:30:25;;;;;;;12.15;8.98;;;13.70;98.00;;;;;;5085882;28;20495;-75
2021/08/25 01:32:52;;;;;;;12.27;8.50;;;13.70;98.10;;;;;;5065925;28;20039;-75
2021/08/25 01:35:19;;;;;;;11.25;7.53;;;13.70;98.30;;;;;;5085672;28;20711;-75
2021/08/25 01:37:46;;;;;;;10.45;6.65;;;13.70;98.40;;;;;;5032757;28;20036;-75
2021/08/25 01:40:13;;;;;;;7.38;4.55;;;13.60;98.40;;;;;;5075061;28;20027;-75
2021/08/25 01:42:39;;;;;;;10.73;5.45;;;13.70;98.60;;;;;;5032690;28;20399;-75
2021/08/25 01:45:06;;;;;;;8.80;5.90;;;13.60;98.70;;;;;;5055057;28;20044;-75
2021/08/25 01:47:32;;;;;;;9.65;6.25;;;13.60;98.90;;;;;;5071894;28;20035;-75
2021/08/25 01:49:59;;;;;;;8.13;5.45;;;13.60;99.00;;;;;;5070837;28;20044;-78
2021/08/25 01:52:25;;;;;;;6.65;4.35;;;13.60;99.10;;;;;;5073085;28;20020;-78
2021/08/25 01:54:55;;;;;;;7.25;4.07;;;13.60;99.30;;;;;;5038084;28;20044;-79
2021/08/25 01:57:21;;;;;;;5.00;3.50;;;13.60;99.40;;;;;;5052257;28;20036;-79
2021/08/25 01:59:48;;;;;;;3.97;2.72;;;13.50;99.50;;;;;;5033022;28;20051;-79
2021/08/25 02:02:15;;;;;;;4.65;2.53;;;13.50;99.60;;;;;;5071175;28;20039;-79
2021/08/25 02:04:41;;;;;;;4.53;3.13;;;13.50;99.70;;;;;;5052996;28;20044;-79
2021/08/25 02:07:08;;;;;;;6.53;3.28;;;13.50;99.80;;;;;;5038678;28;20032;-76
2021/08/25 02:09:35;;;;;;;5.03;2.90;;;13.50;99.90;;;;;;5036890;28;20486;-76
2021/08/25 02:12:02;;;;;;;5.43;2.55;;;13.50;99.90;;;;;;5067394;28;20028;-76
2021/08/25 02:14:28;;;;;;;7.07;3.33;;;13.50;99.90;;;;;;5048985;28;20052;-76
2021/08/25 02:16:54;;;;;;;5.90;3.40;;;13.50;99.90;;;;;;5050633;28;20051;-76
2021/08/25 02:19:21;;;;;;;5.72;3.50;;;13.50;99.90;;;;;;5072871;28;20708;-76
2021/08/25 02:21:47;;;;;;;4.05;2.40;;;13.50;99.90;;;;;;5053519;28;20028;-75
2021/08/25 02:24:14;;;;;;;4.72;2.78;;;13.40;99.90;;;;;;5041779;28;20059;-75
2021/08/25 02:26:40;;;;;;;3.90;2.47;;;13.40;99.90;;;;;;5050332;28;20037;-76
2021/08/25 02:29:07;;;;;;;6.32;3.05;;;13.40;99.90;;;;;;5055195;28;20040;-76
2021/08/25 02:31:33;;;;;;;5.45;3.35;;;13.40;99.90;;;;;;5075415;28;20483;-76
2021/08/25 02:33:59;;;;;;;6.03;3.20;;;13.40;99.90;;;;;;5074735;28;20028;-76
2021/08/25 02:36:27;;;;;;;5.78;3.53;;;13.40;99.90;;;;;;5051880;28;20052;-76
2021/08/25 02:38:54;;;;;;;5.88;2.90;;;13.30;99.90;;;;;;5055290;28;20057;-79
2021/08/25 02:41:21;;;;;;;4.53;2.65;;;13.30;99.90;;;;;;5053324;28;20029;-79
2021/08/25 02:43:47;;;;;;;4.88;2.80;;;13.30;99.90;;;;;;5057085;28;20056;-79
2021/08/25 02:46:14;;;;;;;4.80;2.60;;;13.30;99.90;;;;;;5050089;28;20075;-76
2021/08/25 02:48:41;;;;;;;5.07;2.80;;;13.30;99.90;;;;;;5047181;28;20048;-76
2021/08/25 02:51:08;;;;;;;5.95;2.92;;;13.30;99.90;;;;;;5064871;28;20040;-76
2021/08/25 02:53:34;;;;;;;3.95;2.78;;;13.30;99.90;;;;;;5044587;28;20044;-76
2021/08/25 02:56:01;;;;;;;4.43;2.88;;;13.20;99.90;;;;;;5028475;28;20052;-75
2021/08/25 02:58:27;;;;;;;4.93;2.85;;;13.20;99.90;;;;;;5061713;28;20427;-76
2021/08/25 03:00:54;;;;;;;6.15;3.03;;;13.30;99.90;;;;;;4995409;28;20060;-76
2021/08/25 03:03:21;;;;;;;6.03;2.83;;;13.20;99.90;;;;;;5031253;28;20043;-76
2021/08/25 03:05:47;;;;;;;4.93;2.83;;;13.20;99.90;;;;;;5055468;28;20040;-76
2021/08/25 03:08:14;;;;;;;8.18;3.00;;;13.20;99.90;;;;;;5073409;28;20040;-76
2021/08/25 03:10:40;;;;;;;4.68;2.67;;;13.20;99.90;;;;;;5056051;28;20040;-76
2021/08/25 03:13:07;;;;;;;6.97;2.70;;;13.20;99.90;;;;;;5051576;28;20047;-75
2021/08/25 03:15:34;;;;;;;5.63;2.80;;;13.20;99.90;;;;;;5037336;28;20029;-76
2021/08/25 03:18:02;;;;;;;6.53;3.38;;;13.20;99.90;;;;;;5050407;28;20037;-76
2021/08/25 03:20:28;;;;;;;4.95;3.20;;;13.10;99.90;;;;;;5067992;28;20036;-75
2021/08/25 03:22:55;;;;;;;5.13;2.92;;;13.10;99.90;;;;;;5047740;28;20059;-76
2021/08/25 03:25:21;;;;;;;6.18;2.88;;;13.10;99.90;;;;;;5064453;28;20037;-76
2021/08/25 03:27:47;;;;;;;5.57;3.25;;;13.10;99.90;;;;;;5034143;28;20044;-76
2021/08/25 03:30:14;;;;;;;7.88;3.28;;;13.10;99.90;;;;;;5065395;28;20028;-76
2021/08/25 03:32:40;;;;;;;6.20;3.30;;;13.00;99.90;;;;;;5064159;28;20032;-75
2021/08/25 03:35:07;;;;;;;5.28;3.40;;;13.00;99.90;;;;;;5035682;28;20482;-76
2021/08/25 03:37:34;;;;;;;5.28;3.28;;;13.10;99.90;;;;;;5029641;28;20053;-76
2021/08/25 03:40:00;;;;;;;5.28;3.33;;;13.00;99.90;;;;;;5036997;28;20064;-76
2021/08/25 03:42:27;;;;;;;6.47;3.28;;;13.00;99.90;;;;;;5064978;28;20050;-76
2021/08/25 03:44:53;;;;;;;6.53;3.70;;;13.00;99.90;;;;;;5033818;28;20048;-76
2021/08/25 03:47:20;;;;;;;6.15;3.33;;;13.00;99.90;;;;;;5064849;28;20027;-79
2021/08/25 03:49:46;;;;;;;5.95;3.10;;;13.00;99.90;;;;;;5066073;28;20972;-75
2021/08/25 03:52:13;;;;;;;6.35;3.38;;;12.90;99.90;;;;;;5047928;28;20035;-75
2021/08/25 03:54:39;;;;;;;4.63;3.17;;;12.90;99.90;;;;;;5048755;28;20052;-76
2021/08/25 03:57:05;;;;;;;7.05;3.20;;;12.90;99.90;;;;;;5063631;28;20028;-75
2021/08/25 03:59:33;;;;;;;6.50;3.63;;;12.90;99.90;;;;;;5048109;28;20040;-75
2021/08/25 04:01:59;;;;;;;5.22;3.40;;;12.90;99.90;;;;;;5048710;28;20043;-75
2021/08/25 04:04:25;;;;;;;5.03;3.70;;;12.80;99.90;;;;;;5048544;28;20044;-75
2021/08/25 04:06:52;;;;;;;5.50;4.10;;;12.80;99.90;;;;;;5062679;28;20032;-75
2021/08/25 04:09:18;;;;;;;6.00;3.72;;;12.80;99.90;;;;;;5083221;28;20043;-79
2021/08/25 04:11:45;;;;;;;6.50;4.45;;;12.80;99.90;;;;;;5047566;28;20054;-79
2021/08/25 04:14:11;;;;;;;8.02;3.92;;;12.80;99.90;;;;;;5066853;28;20044;-79
2021/08/25 04:16:37;;;;;;;5.78;3.60;;;12.80;99.90;;;;;;5081062;28;20035;-79
2021/08/25 04:19:04;;;;;;;5.60;4.10;;;12.70;99.90;;;;;;5066018;28;20375;-79
2021/08/25 04:21:30;;;;;;;5.32;3.47;;;12.70;99.90;;;;;;5068594;28;20059;-78
2021/08/25 04:23:56;;;;;;;5.68;4.00;;;12.80;99.90;;;;;;5050547;28;21182;-79
2021/08/25 04:26:23;;;;;;;6.07;3.40;;;12.80;99.90;;;;;;5067284;28;20499;-79
2021/08/25 04:28:50;;;;;;;5.22;3.55;;;12.80;99.90;;;;;;5084680;28;20036;-79
2021/08/25 04:31:16;;;;;;;4.35;3.10;;;12.70;99.90;;;;;;5067282;28;20047;-79
2021/08/25 04:33:43;;;;;;;4.05;3.08;;;12.70;99.90;;;;;;5053218;28;20106;-79
2021/08/25 04:36:09;;;;;;;5.80;3.53;;;12.70;99.90;;;;;;5050255;28;20044;-78
2021/08/25 04:38:35;;;;;;;4.38;2.75;;;12.80;99.90;;;;;;5050235;28;20044;-79
2021/08/25 04:41:02;;;;;;;4.43;3.28;;;12.70;99.90;;;;;;5067730;28;20043;-76
2021/08/25 04:43:28;;;;;;;5.13;3.60;;;12.70;99.90;;;;;;5083162;28;20050;-75
2021/08/25 04:45:55;;;;;;;5.38;3.47;;;12.70;99.90;;;;;;5048291;28;20155;-75
2021/08/25 04:48:22;;;;;;;5.22;2.83;;;12.70;99.90;;;;;;5046756;28;20040;-76
2021/08/25 04:50:48;;;;;;;4.97;3.17;;;12.70;99.90;;;;;;5066345;28;20043;-76
2021/08/25 04:53:15;;;;;;;5.05;3.28;;;12.70;99.90;;;;;;5052524;28;20036;-76
2021/08/25 04:55:41;;;;;;;5.15;2.92;;;12.70;99.90;;;;;;5050612;28;20036;-76
2021/08/25 04:58:08;;;;;;;4.13;2.33;;;12.70;99.90;;;;;;5065860;28;20479;-76
2021/08/25 05:00:34;;;;;;;5.75;3.22;;;12.80;99.90;;;;;;5068479;28;20684;-76
2021/08/25 05:03:01;;;;;;;3.85;2.88;;;12.80;99.90;;;;;;5051284;28;20044;-76
2021/08/25 05:05:27;;;;;;;6.07;3.50;;;12.80;99.90;;;;;;5035173;28;20048;-75
2021/08/25 05:07:54;;;;;;;6.53;3.05;;;12.80;99.90;;;;;;5065472;28;20032;-75
2021/08/25 05:10:20;;;;;;;5.68;2.97;;;12.80;99.90;;;;;;5067087;28;20048;-76
2021/08/25 05:12:47;;;;;;;4.50;2.90;;;12.90;99.90;;;;;;5068640;28;20032;-76
2021/08/25 05:15:13;;;;;;;3.88;3.22;;;12.90;99.90;;;;;;5085546;28;20044;-76
2021/08/25 05:17:40;;;;;;;4.93;3.22;;;12.90;99.90;;;;;;5082422;28;20777;-76
2021/08/25 05:20:07;;;;;;;5.28;3.22;;;13.00;99.90;;;;;;5053817;28;20052;-78
2021/08/25 05:22:35;;;;;;;6.75;2.88;;;13.00;99.90;;;;;;5066729;28;20036;-76
2021/08/25 05:25:02;;;;;;;5.80;3.22;;;13.10;99.90;;;;;;5087216;28;20043;-76
2021/08/25 05:27:28;;;;;;;4.88;3.03;;;13.10;99.90;;;;;;5066557;28;20047;-76
2021/08/25 05:29:55;;;;;;;5.28;2.63;;;13.20;99.90;;;;;;5085692;28;20028;-78
2021/08/25 05:32:24;;;;;;;5.15;3.20;;;13.20;99.90;;;;;;5052765;28;20038;-76
2021/08/25 05:34:51;;;;;;;3.80;2.90;;;13.20;99.90;;;;;;5067378;28;20365;-75
2021/08/25 05:37:17;;;;;;;5.97;3.08;;;13.30;99.90;;;;;;5083182;28;20480;-76
2021/08/25 05:39:44;;;;;;;4.95;3.60;;;13.30;99.90;;;;;;5067554;28;20403;-77
2021/08/25 05:42:10;;;;;;;4.68;3.20;;;13.40;99.90;;;;;;5036289;28;20036;-81
2021/08/25 05:44:37;;;;;;;5.88;3.20;;;13.40;99.90;;;;;;5089885;28;20040;-83
2021/08/25 05:47:03;;;;;;;5.70;3.42;;;13.40;99.90;;;;;;5053873;28;20047;-83
2021/08/25 05:49:30;;;;;;;5.13;3.00;;;13.50;99.90;;;;;;5070795;28;20043;-83
2021/08/25 05:51:56;;;;;;;4.43;3.00;;;13.50;99.90;;;;;;5035524;28;20090;-76
2021/08/25 05:54:22;;;;;;;5.50;3.50;;;13.60;99.90;;;;;;5028075;28;20507;-76
2021/08/25 05:56:49;;;;;;;11.45;8.82;;;13.70;99.90;;;;;;5046863;28;20063;-76
2021/08/25 05:59:15;;;;;;;8.90;5.57;;;13.80;99.90;;;;;;5050001;28;20036;-76
2021/08/25 06:01:42;;;;;;;6.30;4.65;;;14.00;99.90;;;;;;5050861;28;20058;-76
2021/08/25 06:04:08;;;;;;;6.22;4.63;;;14.20;99.90;;;;;;5063632;28;20044;-77
2021/08/25 06:06:35;;;;;;;6.15;4.22;;;14.40;99.90;;;;;;5049181;28;20032;-76
2021/08/25 06:09:04;;;;;;;6.38;3.95;;;14.60;99.90;;;;;;5067131;28;20487;-76
2021/08/25 06:11:32;;;;;;;6.95;4.40;;;14.90;99.90;;;;;;5067149;28;20036;-84
2021/08/25 06:13:58;;;;;;;7.30;4.20;;;15.10;99.90;;;;;;5087892;28;20036;-84
2021/08/25 06:16:25;;;;;;;5.88;4.10;;;15.30;99.90;;;;;;5085599;28;20028;-83
2021/08/25 06:18:51;;;;;;;7.05;4.20;;;15.60;99.90;;;;;;5068717;28;20040;-88
2021/08/25 06:21:18;;;;;;;6.35;3.80;;;15.70;99.90;;;;;;5053377;28;20040;-80
2021/08/25 06:23:44;;;;;;;6.40;3.35;;;15.90;99.90;;;;;;5052083;28;20799;-80
2021/08/25 06:26:11;;;;;;;5.28;3.10;;;16.10;99.90;;;;;;5052582;28;20055;-80
2021/08/25 06:28:38;;;;;;;4.00;2.50;;;16.30;99.90;;;;;;5086865;28;20470;-80
2021/08/25 06:31:05;;;;;;;5.25;3.53;;;16.50;99.90;;;;;;5087322;28;20043;-80
2021/08/25 06:33:31;;;;;;;7.70;3.00;;;16.60;99.90;;;;;;5085906;28;20032;-76
2021/08/25 06:35:58;;;;;;;6.47;3.28;;;16.70;99.90;;;;;;5083426;28;20036;-76
2021/08/25 06:38:24;;;;;;;4.10;2.92;;;16.80;99.90;;;;;;5084630;28;20065;-76
2021/08/25 06:40:51;;;;;;;8.55;3.42;;;16.90;99.90;;;;;;5084723;28;20032;-76
2021/08/25 06:43:17;;;;;;;8.90;3.25;;;17.00;99.90;;;;;;5066157;28;20032;-75
2021/08/25 06:45:43;;;;;;;6.22;3.78;;;17.10;99.90;;;;;;5067123;28;20074;-80
2021/08/25 06:48:10;;;;;;;5.97;3.65;;;17.20;99.90;;;;;;5084152;28;20040;-79
2021/08/25 06:50:36;;;;;;;4.80;2.47;;;17.40;99.90;;;;;;5067437;28;20032;-78
2021/08/25 06:53:03;;;;;;;7.47;2.83;;;17.60;99.70;;;;;;5083344;28;20050;-75
2021/08/25 06:55:29;;;;;;;6.15;3.20;;;18.00;99.40;;;;;;5067052;28;20047;-76
2021/08/25 06:57:55;;;;;;;4.65;2.80;;;18.30;98.60;;;;;;5081186;28;20037;-76
2021/08/25 07:00:22;;;;;;;4.50;3.03;;;18.50;98.10;;;;;;5046228;28;20031;-76
2021/08/25 07:02:48;;;;;;;5.07;3.22;;;18.70;97.70;;;;;;5061865;28;20047;-76
2021/08/25 07:05:15;;;;;;;6.60;4.03;;;18.80;97.30;;;;;;5015780;28;20054;-76
2021/08/25 07:07:41;;;;;;;5.10;2.55;;;18.80;97.00;;;;;;5029552;28;20041;-76
2021/08/25 07:10:08;;;;;;;6.25;3.28;;;18.90;96.90;;;;;;5065436;28;20043;-76
2021/08/25 07:12:34;;;;;;;4.63;3.30;;;18.90;96.80;;;;;;5066129;28;20047;-76
2021/08/25 07:15:01;;;;;;;6.22;3.22;;;19.00;96.30;;;;;;5083705;28;20051;-76
2021/08/25 07:17:28;;;;;;;5.68;2.70;;;19.10;96.00;;;;;;5065443;28;20150;-76
2021/08/25 07:19:54;;;;;;;5.95;2.38;;;19.20;96.10;;;;;;5064805;28;20031;-76
2021/08/25 07:22:20;;;;;;;4.32;3.05;;;19.30;95.90;;;;;;5032271;28;20040;-76
2021/08/25 07:24:47;;;;;;;4.40;1.77;;;19.50;95.60;;;;;;5085418;28;20513;-78
2021/08/25 07:27:13;;;;;;;4.07;2.20;;;19.60;95.70;;;;;;5064085;28;20383;-79
2021/08/25 07:29:40;;;;;;;4.68;2.67;;;19.60;95.10;;;;;;5086682;28;20036;-78
2021/08/25 07:32:07;;;;;;;5.25;2.38;;;19.60;95.00;;;;;;5066000;28;20469;-79
2021/08/25 07:34:34;;;;;;;4.05;2.10;;;19.80;94.90;;;;;;5065973;28;20048;-78
2021/08/25 07:37:01;;;;;;;3.97;2.13;;;19.90;94.50;;;;;;5081809;28;20028;-76
2021/08/25 07:39:27;;;;;;;3.30;2.10;;;19.90;94.10;;;;;;5048044;28;20055;-77
2021/08/25 07:41:54;;;;;;;4.03;2.47;;;20.00;93.90;;;;;;5064080;28;20051;-77
2021/08/25 07:44:20;;;;;;;4.90;2.13;;;20.10;93.80;;;;;;5048403;28;20040;-76
2021/08/25 07:46:47;;;;;;;4.75;1.90;;;20.20;93.60;;;;;;5081592;28;20024;-77
2021/08/25 07:49:14;;;;;;;3.65;1.95;;;20.40;93.70;;;;;;5064345;28;20415;-76
2021/08/25 07:51:40;;;;;;;2.70;1.65;;;20.40;93.20;;;;;;5063206;28;20031;-77
2021/08/25 07:54:06;;;;;;;2.83;1.80;;;20.40;93.10;;;;;;5064496;28;20056;-76
2021/08/25 07:56:33;;;;;;;3.70;2.05;;;20.50;93.00;;;;;;5081744;28;20035;-77
2021/08/25 07:58:59;;;;;;;2.83;1.88;;;20.60;92.70;;;;;;5048099;28;20379;-77
2021/08/25 08:01:26;;;;;;;3.28;1.90;;;20.70;92.70;;;;;;5047700;28;20028;-76
2021/08/25 08:03:52;;;;;;;3.78;2.38;;;20.80;92.10;;;;;;5066534;28;20036;-76
2021/08/25 08:06:19;;;;;;;3.17;1.48;;;20.80;92.00;;;;;;5048209;28;20043;-77
2021/08/25 08:08:46;;;;;;;4.18;1.88;;;20.90;91.90;;;;;;5064549;28;20028;-78
2021/08/25 08:11:14;;;;;;;2.72;1.48;;;21.10;91.80;;;;;;5042036;28;20043;-76
2021/08/25 08:13:41;;;;;;;2.60;1.30;;;21.20;91.30;;;;;;5082180;28;20028;-77
2021/08/25 08:16:08;;;;;;;2.45;1.40;;;21.40;90.80;;;;;;5082200;28;20033;-77
2021/08/25 08:18:54;;;;;;;2.95;1.20;;;21.40;90.60;;;;;;5063025;28;20044;-77
2021/08/25 08:21:21;;;;;;;3.17;1.75;;;21.50;90.50;;;;;;5047831;28;20405;-77
2021/08/25 08:23:47;;;;;;;2.35;1.40;;;21.60;90.00;;;;;;5063668;28;20051;-76
2021/08/25 08:26:13;;;;;;;2.92;1.95;;;21.70;89.80;;;;;;5065392;28;20044;-77
2021/08/25 08:28:40;;;;;;;2.40;1.33;;;21.70;89.20;;;;;;5065044;28;20352;-76
2021/08/25 08:31:08;;;;;;;2.40;1.35;;;21.80;89.40;;;;;;5068922;28;20031;-76
2021/08/25 08:33:34;;;;;;;2.60;1.50;;;21.90;89.30;;;;;;5051308;28;20032;-77
2021/08/25 08:36:00;;;;;;;5.75;3.08;;;22.00;88.90;;;;;;5047280;28;20059;-77
2021/08/25 08:38:27;;;;;;;3.85;2.03;;;22.10;88.40;;;;;;5067886;28;20867;-76
2021/08/25 08:40:53;;;;;;;3.28;1.77;;;22.20;87.30;;;;;;5068231;28;20051;-76
2021/08/25 08:43:20;;;;;;;3.97;1.92;;;22.10;86.60;;;;;;5086534;28;20103;-76
2021/08/25 08:45:46;;;;;;;5.07;1.98;;;22.20;87.00;;;;;;5066364;28;20048;-77
2021/08/25 08:48:14;;;;;;;2.20;1.33;;;22.30;86.30;;;;;;5050024;28;20056;-77
2021/08/25 08:50:44;;;;;;;2.40;1.15;;;22.30;86.20;;;;;;5052050;28;20514;-76
2021/08/25 08:53:11;;;;;;;3.33;1.45;;;22.40;86.10;;;;;;5084663;28;20036;-76
2021/08/25 08:55:38;;;;;;;2.30;1.30;;;22.60;84.70;;;;;;5068456;28;20044;-76
2021/08/25 08:58:06;;;;;;;3.05;1.13;;;22.70;84.00;;;;;;5063564;28;20032;-77
2021/08/25 09:00:33;;;;;;;3.08;1.77;;;22.80;83.50;;;;;;5068618;28;20087;-76
2021/08/25 09:03:00;;;;;;;6.57;1.60;;;22.90;83.10;;;;;;5046363;28;20399;-75
2021/08/25 09:05:31;;;;;;;3.30;1.58;;;23.10;82.90;;;;;;5068440;28;20062;-74
2021/08/25 09:08:03;;;;;;;4.13;1.67;;;23.20;82.90;;;;;;5083309;28;20025;-74
2021/08/25 09:10:32;;;;;;;3.20;1.13;;;23.20;81.90;;;;;;5086558;28;20043;-74
2021/08/25 09:13:02;;;;;;;4.43;1.23;;;23.20;81.30;;;;;;5083332;28;20035;-74
2021/08/25 09:15:30;;;;;;;3.20;1.00;;;23.30;80.30;;;;;;5066985;28;20839;-74
2021/08/25 09:18:18;;;;;;;2.58;1.30;;;23.40;80.10;;;;;;5066022;28;20404;-74
2021/08/25 09:20:48;;;;;;;3.08;1.60;;;23.50;79.20;;;;;;5084226;28;20040;-74
2021/08/25 09:23:19;;;;;;;3.17;1.67;;;23.60;78.50;;;;;;5067268;28;20059;-74
2021/08/25 09:26:00;;;;;;;3.20;1.48;;;23.60;78.20;;;;;;5067248;28;20039;-75
2021/08/25 09:28:31;;;;;;;3.10;1.65;;;23.60;77.80;;;;;;5082942;28;20032;-75
2021/08/25 09:31:16;;;;;;;3.22;1.73;;;23.60;77.90;;;;;;5053753;28;20032;-75
2021/08/25 09:33:46;;;;;;;2.97;1.80;;;23.70;76.80;;;;;;5086214;28;20043;-75
2021/08/25 09:36:18;;;;;;;4.68;2.28;;;23.70;76.00;;;;;;5068537;28;20043;-75
2021/08/25 09:38:55;;;;;;;;;;;23.70;75.50;;;;;;5083909;28;20062;-75
2021/08/25 09:41:22;;;;;;;4.30;2.80;;;23.70;75.30;;;;;;5066929;28;20375;-75
2021/08/25 09:43:50;;;;;;;3.60;1.83;;;23.80;74.90;;;;;;5068155;28;20048;-75
2021/08/25 09:46:28;;;;;;;3.05;1.63;;;23.80;74.60;;;;;;5084632;28;20028;-75
2021/08/25 09:48:57;;;;;;;2.67;1.35;;;23.90;74.30;;;;;;5052555;28;20044;-77
2021/08/25 09:51:25;;;;;;;1.95;1.27;;;24.00;73.50;;;;;;5067902;28;20040;-75
2021/08/25 09:54:07;;;;;;;2.92;1.48;;;24.10;73.50;;;;;;5086057;28;20487;-76
2021/08/25 09:56:36;;;;;;;2.53;1.20;;;24.20;73.30;;;;;;5052877;28;20523;-75
2021/08/25 09:59:05;;;;;;;2.63;1.42;;;24.30;72.70;;;;;;5066386;28;20067;-76
2021/08/25 10:01:31;;;;;;;3.58;1.90;;;24.30;72.30;;;;;;5064934;28;20044;-76
2021/08/25 10:03:58;;;;;;;2.20;1.40;;;24.30;72.30;;;;;;5067493;28;20099;-75
2021/08/25 10:06:26;;;;;;;3.13;1.90;;;24.30;72.30;;;;;;5015801;28;20059;-75
2021/08/25 10:08:57;;;;;;;3.67;1.67;;;24.40;71.90;;;;;;5051135;28;20032;-75
2021/08/25 10:11:28;;;;;;;3.10;1.40;;;24.50;71.90;;;;;;5051375;28;20036;-75
2021/08/25 10:13:56;;;;;;;2.80;1.38;;;24.60;71.80;;;;;;5064074;28;20028;-75
2021/08/25 10:16:43;;;;;;;3.38;1.70;;;24.70;71.50;;;;;;5032076;28;20040;-75
2021/08/25 10:19:38;;;;;;;2.45;1.42;;;24.80;70.40;;;;;;5066596;28;20028;-75
2021/08/25 10:22:14;;;;;;;2.92;1.35;;;25.00;70.20;;;;;;5066566;28;20035;-76
2021/08/25 10:25:00;;;;;;;3.80;1.70;;;25.00;68.50;;;;;;5067340;28;20036;-75
2021/08/25 10:27:32;;;;;;;5.22;3.40;;;25.10;68.50;;;;;;5053797;28;20039;-74
2021/08/25 10:30:02;;;;;;;5.22;4.32;;;25.20;68.50;;;;;;5084208;28;20040;-74
2021/08/25 10:32:29;;;;;;;3.03;1.98;;;25.50;68.20;;;;;;5066054;28;20039;-74
2021/08/25 10:35:11;;;;;;;3.00;1.70;;;25.80;67.90;;;;;;5066543;28;20044;-73
2021/08/25 10:37:40;;;;;;;3.10;1.83;;;26.00;66.80;;;;;;5082851;28;20394;-73
2021/08/25 10:40:08;;;;;;;2.40;1.70;;;26.10;65.50;;;;;;5064085;28;20044;-75
2021/08/25 10:42:51;;;;;;;3.47;1.65;;;26.10;65.10;;;;;;5065310;28;20036;-75
2021/08/25 10:45:38;;;;;;;2.55;1.23;;;26.30;64.80;;;;;;5064712;28;20036;-75
2021/08/25 10:48:08;;;;;;;3.67;2.83;;;26.50;65.10;;;;;;5080520;28;20024;-75
2021/08/25 10:50:53;;;;;;;3.50;2.53;;;26.70;64.40;;;;;;5064451;28;20043;-75
2021/08/25 10:53:28;;;;;;;6.68;2.40;;;27.10;63.60;;;;;;5065791;28;20062;-75
2021/08/25 10:56:15;;;;;;;3.63;2.00;;;27.40;62.20;;;;;;5065484;28;20048;-75
2021/08/25 10:58:55;;;;;;;3.97;2.17;;;27.60;61.70;;;;;;5078344;28;20035;-76
2021/08/25 11:01:58;;;;;;;2.83;1.52;;;27.90;60.20;;;;;;5083589;28;20044;-75
2021/08/25 11:04:25;;;;;;;4.43;2.00;;;28.00;59.60;;;;;;5083359;28;20024;-75
2021/08/25 11:07:01;;;;;;;5.63;1.95;;;28.30;59.30;;;;;;5031724;28;20059;-75
2021/08/25 11:09:32;;;;;;;4.18;2.00;;;28.60;58.30;;;;;;5083111;28;20032;-75
2021/08/25 11:12:08;;;;;;;3.80;1.95;;;28.80;58.00;;;;;;5075965;28;20033;-75
2021/08/25 11:14:49;;;;;;;3.15;1.60;;;29.20;57.00;;;;;;5052526;28;20472;-77
2021/08/25 11:17:18;;;;;;;2.57;1.50;;;29.40;56.70;;;;;;5080092;28;20035;-74
2021/08/25 11:19:55;;;;;;;3.80;2.45;;;29.10;56.40;;;;;;5048845;28;20032;-75
2021/08/25 11:22:31;;;;;;;3.03;2.03;;;28.40;56.70;;;;;;5071489;28;20028;-75
2021/08/25 11:25:04;;;;;;;2.40;1.52;;;28.10;57.90;;;;;;5065965;28;20051;-75
2021/08/25 11:27:32;;;;;;;2.90;1.73;;;28.30;57.80;;;;;;5064837;28;20408;-75
2021/08/25 11:30:10;;;;;;;3.38;2.20;;;28.80;58.00;;;;;;5065833;28;20036;-76
2021/08/25 11:33:04;;;;;;;3.15;2.30;;;29.50;56.30;;;;;;5084384;28;20486;-75
2021/08/25 11:35:37;;;;;;;4.15;2.88;;;30.00;55.10;;;;;;5082635;28;20517;-76
2021/08/25 11:38:07;;;;;;;3.13;1.75;;;30.20;55.10;;;;;;5061797;28;20071;-76
2021/08/25 11:40:39;;;;;;;3.03;2.13;;;30.40;55.50;;;;;;5065478;28;20055;-75
2021/08/25 11:43:07;;;;;;;2.97;2.45;;;30.70;54.20;;;;;;5063151;28;20291;-75
2021/08/25 11:45:34;;;;;;;2.30;1.67;;;31.00;54.20;;;;;;5064942;28;20063;-75
2021/08/25 11:48:03;;;;;;;2.55;1.40;;;31.30;53.90;;;;;;5076877;28;20032;-76
2021/08/25 11:50:37;;;;;;;3.90;1.90;;;31.70;52.70;;;;;;5062194;28;20052;-75
2021/08/25 11:53:12;;;;;;;4.53;1.80;;;31.90;52.00;;;;;;5073308;28;20040;-75
2021/08/25 11:55:39;;;;;;;4.15;2.30;;;32.10;51.20;;;;;;5078001;28;20471;-76
2021/08/25 11:58:24;;;;;;;3.08;2.72;;;32.30;50.00;;;;;;5061395;28;20032;-75
2021/08/25 12:00:53;;;;;;;10.40;9.32;;;32.20;49.60;;;;;;5058891;28;20040;-76
2021/08/25 12:03:20;;;;;;;4.90;3.00;;;32.20;49.20;;;;;;5080531;28;20087;-76
2021/08/25 12:05:54;;;;;;;2.85;2.20;;;32.30;49.10;;;;;;5063839;28;20047;-76
2021/08/25 12:08:21;;;;;;;3.75;1.77;;;32.40;48.30;;;;;;5081585;28;20031;-76
2021/08/25 12:11:01;;;;;;;3.80;1.63;;;32.60;47.60;;;;;;5063033;28;20032;-76
2021/08/25 12:13:32;;;;;;;2.75;2.00;;;32.70;46.50;;;;;;5081139;28;20048;-76
2021/08/25 12:15:59;;;;;;;3.10;1.67;;;32.70;46.40;;;;;;5064334;28;20047;-76
2021/08/25 12:18:28;;;;;;;3.22;1.10;;;32.70;47.10;;;;;;5077510;28;20039;-75
2021/08/25 12:20:57;;;;;;;2.58;1.70;;;32.90;46.60;;;;;;5050772;28;20039;-76
2021/08/25 12:23:27;;;;;;;3.30;1.40;;;33.20;45.50;;;;;;5046955;28;20051;-76
2021/08/25 12:25:56;;;;;;;4.78;2.25;;;33.50;45.50;;;;;;5079050;28;20592;-75
2021/08/25 12:28:36;;;;;;;2.88;2.08;;;33.90;45.10;;;;;;5079855;28;20036;-75
2021/08/25 12:31:16;;;;;;;3.13;1.90;;;33.90;44.60;;;;;;5048623;28;20051;-76
2021/08/25 12:33:43;;;;;;;2.60;1.75;;;34.10;44.80;;;;;;5063785;28;20024;-76
2021/08/25 12:36:23;;;;;;;2.92;1.60;;;34.40;44.40;;;;;;5063948;28;20032;-75
2021/08/25 12:39:05;;;;;;;2.17;1.20;;;34.40;44.10;;;;;;5078853;28;20044;-75
2021/08/25 12:41:33;;;;;;;3.03;2.03;;;34.00;44.60;;;;;;5033716;28;20041;-75
2021/08/25 12:43:59;;;;;;;2.53;1.95;;;33.80;45.20;;;;;;5070426;28;20036;-75
2021/08/25 12:46:26;;;;;;;2.60;1.98;;;33.90;45.60;;;;;;5069173;28;20051;-75
2021/08/25 12:48:52;;;;;;;4.30;1.55;;;34.40;44.90;;;;;;5012471;28;20559;-74
2021/08/25 12:51:19;;;;;;;2.78;1.30;;;34.70;44.20;;;;;;5050172;28;20033;-74
2021/08/25 12:53:50;;;;;;;4.43;1.30;;;34.80;44.00;;;;;;5034241;28;20043;-74
2021/08/25 12:56:18;;;;;;;1.65;1.05;;;34.40;43.80;;;;;;5069131;28;20033;-74